Nearby METAR Reports

 

KNUQ - Moffett Nas/Mtn, California, USA
Distance from station: N 9mi, 14km
Updated: Thu, 29-Feb-2024 1:35pm PST
Haze, Overcast
Haze, Overcast
 Wind from S
Wind: S 10 mph , 17 km/h, Gust: 17 mph , 28 km/h
Temperature: 57°F , 14°C
Dew Point: 52°F , 11°C
Humidity: 82%
Barometer: 30.02 inHg , 1016.6 hPa
Summary: Haze
Clouds: Overcast
Visibility: 3 miles , 5 km
Cloud details: Mostly Cloudy 2900 ft
Mostly Cloudy 3500 ft
Overcast 4200 ft
2024/02/29 21:35 KNUQ 292135Z AUTO 17009G15KT 3SM HZ BKN029 BKN035 OVC042 14/11 A3002 RMK AO2
KSJC - San Jose, California, USA
Distance from station: NE 9mi, 14km
Updated: Thu, 29-Feb-2024 12:53pm PST
Overcast
Overcast
 Wind from SSW
Wind: SSW 18 mph , 30 km/h
Temperature: 63°F , 17°C
Dew Point: 48°F , 9°C
Humidity: 59%
Barometer: 30.03 inHg , 1016.9 hPa
Clouds: Overcast
Visibility: 10 miles , 16 km
Cloud details: Few Clouds 900 ft
Mostly Cloudy 2600 ft
Overcast 6500 ft
2024/02/29 20:53 KSJC 292053Z 20016KT 10SM FEW009 BKN026TCU OVC065 17/09 A3003 RMK AO2 PK WND 19026/2041 SLP168 TCU ALQDS T01670089 58001
 
KRHV - San Jose/Reid, California, USA
Distance from station: ENE 12mi, 19km
Updated: Thu, 29-Feb-2024 12:47pm PST
Mostly Cloudy
Mostly Cloudy
 Wind from SSE
Wind: SSE 15 mph , 24 km/h, Gust: 23 mph , 37 km/h
Temperature: 57°F , 14°C
Dew Point: 48°F , 9°C
Humidity: 72%
Barometer: 30.04 inHg , 1017.3 hPa
Clouds: Mostly Cloudy
Visibility: 10 miles , 16 km
Cloud details: Mostly Cloudy 2500 ft
2024/02/29 20:47 KRHV 292047Z 15013G20KT 10SM BKN025 14/09 A3004
KPAO - Palo Alto, California, USA
Distance from station: NNW 14mi, 23km
Updated: Thu, 29-Feb-2024 12:47pm PST
Rain showers, Mostly cloudy
Rain showers, Mostly cloudy
 Wind from S
Wind: S 15 mph , 24 km/h, Gust: 23 mph , 37 km/h
Temperature: 61°F , 16°C
Dew Point: 48°F , 9°C
Humidity: 63%
Barometer: 30.02 inHg , 1016.6 hPa
Summary: Rain Showers
Clouds: Mostly Cloudy
Visibility: 10 miles , 16 km
Cloud details: Mostly Cloudy 2400 ft
2024/02/29 20:47 KPAO 292047Z 19013G20KT 10SM SHRA BKN024 16/09 A3002
 
KSQL - San Carlos Airpo, California, USA
Distance from station: NW 21mi, 34km
Updated: Thu, 29-Feb-2024 12:47pm PST
Mist, Overcast
Mist, Overcast
 Wind from SSE
Wind: SSE 10 mph , 17 km/h
Temperature: 57°F , 14°C
Dew Point: 54°F , 12°C
Humidity: 88%
Barometer: 30.02 inHg , 1016.6 hPa
Summary: Mist
Clouds: Overcast
Visibility: 5 miles , 8 km
Cloud details: Overcast 2200 ft
2024/02/29 20:47 KSQL 292047Z 15009KT 5SM BR OVC022 14/12 A3002
KWVI - Watsonville, California, USA
Distance from station: SSE 27mi, 44km
Updated: Thu, 29-Feb-2024 12:53pm PST
Overcast
Overcast
 Wind from SW
Wind: SW 20 mph , 31 km/h, Gust: 28 mph , 44 km/h
Temperature: 59°F , 15°C
Dew Point: 50°F , 10°C
Humidity: 72%
Barometer: 30.06 inHg , 1017.9 hPa
Clouds: Overcast
Visibility: 10 miles , 16 km
Cloud details: Overcast 4100 ft
2024/02/29 20:53 KWVI 292053Z AUTO 22017G24KT 10SM OVC041 15/10 A3006 RMK AO2 PK WND 20028/1954 SLP180 T01500100 58008
 
KHWD - Hayward, California, USA
Distance from station: N 28mi, 44km
Updated: Thu, 29-Feb-2024 12:54pm PST
Light rain, Mostly cloudy
Light rain, Mostly cloudy
 Wind from SSW
Wind: SSW 13 mph , 20 km/h, Gust: 23 mph , 37 km/h
Temperature: 59°F , 15°C
Dew Point: 52°F , 11°C
Humidity: 77%
Barometer: 30.01 inHg , 1016.3 hPa
Summary: Light Rain
Clouds: Mostly Cloudy
Visibility: 10 miles , 16 km
Cloud details: Partly Cloudy 3000 ft
Mostly Cloudy 3600 ft
2024/02/29 20:54 KHWD 292054Z 21011G20KT 10SM -RA SCT030 BKN036 15/11 A3001 RMK AO2 RAB1956 SLP173 P0000 60000 T01500106 58003
KSFO - San Francisco, California, USA
Distance from station: NW 30mi, 49km
Updated: Thu, 29-Feb-2024 1:24pm PST
Light rain, Mist, Overcast
Light rain, Mist, Overcast
 Wind from S
Wind: S 22 mph , 35 km/h, Gust: 35 mph , 56 km/h
Temperature: 57°F , 14°C
Dew Point: 54°F , 12°C
Humidity: 88%
Barometer: 29.99 inHg , 1015.6 hPa
Summary: Light rain, Mist
Clouds: Overcast
Visibility: 2 miles , 3 km
Cloud details: Few Clouds 400 ft
Mostly Cloudy 1800 ft
Overcast 2300 ft
2024/02/29 21:24 KSFO 292124Z 19019G30KT 2SM R28R/6000VP6000FT -RA BR FEW004 BKN018 OVC023 14/12 A2999 RMK AO2 PK WND 19035/2102 P0001 T01390117
 
KHAF - Half Moon Bay, California, USA
Distance from station: WNW 31mi, 50km
Updated: Thu, 29-Feb-2024 1:35pm PST
Mist, Mostly cloudy
Mist, Mostly cloudy
 Wind from S
Wind: S 18 mph , 30 km/h, Gust: 29 mph , 46 km/h
Temperature: 55°F , 13°C
Dew Point: 55°F , 13°C
Humidity: 100%
Barometer: 30.02 inHg , 1016.6 hPa
Summary: Mist
Clouds: Mostly Cloudy
Visibility: 4 miles , 6 km
Cloud details: Partly Cloudy 1100 ft
Mostly Cloudy 1900 ft
Mostly Cloudy 3500 ft
2024/02/29 21:35 KHAF 292135Z AUTO 19016G25KT 4SM BR SCT011 BKN019 BKN035 13/13 A3002 RMK AO2
KOAK - Oakland, California, USA
Distance from station: NNW 31mi, 50km
Updated: Thu, 29-Feb-2024 12:53pm PST
Light rain, Mist, Overcast
Light rain, Mist, Overcast
 Wind from SSW
Wind: SSW 18 mph , 30 km/h, Gust: 32 mph , 52 km/h
Temperature: 57°F , 14°C
Dew Point: 54°F , 12°C
Humidity: 88%
Barometer: 30.01 inHg , 1016.3 hPa
Summary: Light rain, Mist
Clouds: Overcast
Visibility: 6 miles , 10 km
Cloud details: Partly Cloudy 2500 ft
Mostly Cloudy 3000 ft
Overcast 5000 ft
2024/02/29 20:53 KOAK 292053Z 20016G28KT 6SM -RA BR SCT025 BKN030 OVC050 14/12 A3001 RMK AO2 PK WND 21029/2035 SLP162 P0000 60000 T01390117 58006
 
KLVK - Livermore, California, USA
Distance from station: NNE 31mi, 51km
Updated: Thu, 29-Feb-2024 12:53pm PST
Light rain, Overcast
Light rain, Overcast
 Wind from SSW
Wind: SSW 17 mph , 28 km/h, Gust: 28 mph , 44 km/h
Temperature: 57°F , 14°C
Dew Point: 50°F , 10°C
Humidity: 77%
Barometer: 30.00 inHg , 1015.9 hPa
Summary: Light Rain
Clouds: Overcast
Visibility: 7 miles , 11 km
Cloud details: Mostly Cloudy 2800 ft
Overcast 3500 ft
2024/02/29 20:53 KLVK 292053Z 21015G24KT 7SM -RA BKN028 OVC035 14/10 A3000 RMK AO2 RAB03E12B36 SLP159 P0000 60000 T01390100 58003
KCVH - Hollister Muni, California, USA
Distance from station: SE 42mi, 68km
Updated: Thu, 29-Feb-2024 1:35pm PST
Mostly Cloudy
Mostly Cloudy
 Wind from SW
Wind: SW 9 mph , 15 km/h
Temperature: 63°F , 17°C
Dew Point: 46°F , 8°C
Humidity: 56%
Barometer: 30.05 inHg , 1017.6 hPa
Clouds: Mostly Cloudy
Visibility: 10 miles , 16 km
Cloud details: Mostly Cloudy 4200 ft
Mostly Cloudy 5000 ft
2024/02/29 21:35 KCVH 292135Z AUTO 22008KT 10SM BKN042 BKN050 17/08 A3005 RMK A01
 
KSNS - Salinas, California, USA
Distance from station: SSE 48mi, 77km
Updated: Thu, 29-Feb-2024 12:53pm PST
Overcast
Overcast
 Wind from SSE
Wind: SSE 9 mph , 15 km/h
Temperature: 63°F , 17°C
Dew Point: 46°F , 8°C
Humidity: 56%
Barometer: 30.05 inHg , 1017.6 hPa
Clouds: Overcast
Visibility: 10 miles , 16 km
Cloud details: Mostly Cloudy 4700 ft
Overcast 5500 ft
2024/02/29 20:53 KSNS 292053Z 16008KT 10SM BKN047 OVC055 17/08 A3005 RMK AO2 SLP185 T01670083 58012
KMRY - Monterey, California, USA
Distance from station: SSE 49mi, 78km
Updated: Thu, 29-Feb-2024 12:54pm PST
Partly Cloudy
Partly Cloudy
 Wind from SSW
Wind: SSW 17 mph , 28 km/h, Gust: 29 mph , 46 km/h
Temperature: 61°F , 16°C
Dew Point: 46°F , 8°C
Humidity: 59%
Barometer: 30.06 inHg , 1017.9 hPa
Clouds: Partly Cloudy
Visibility: 10 miles , 16 km
Cloud details: Partly Cloudy 3900 ft
Partly Cloudy 4800 ft
2024/02/29 20:54 KMRY 292054Z 20015G25KT 10SM SCT039 SCT048 16/08 A3006 RMK AO2 PK WND 22027/2023 SLP192 T01610078 58007
 
KCCR - Concord, California, USA
Distance from station: N 50mi, 81km
Updated: Thu, 29-Feb-2024 1:41pm PST
Light rain, Mist, Overcast
Light rain, Mist, Overcast
 Wind from SSW
Wind: SSW 13 mph , 20 km/h
Temperature: 55°F , 13°C
Dew Point: 54°F , 12°C
Humidity: 94%
Barometer: 29.97 inHg , 1014.9 hPa
Summary: Light rain, Mist
Clouds: Overcast
Visibility: 3 miles , 5 km
Cloud details: Partly Cloudy 1600 ft
Mostly Cloudy 2800 ft
Overcast 3800 ft
2024/02/29 21:41 KCCR 292141Z 20011KT 3SM -RA BR SCT016 BKN028 OVC038 13/12 A2997 RMK AO2 P0003 T01330117

Metar display script from Saratoga-Weather.org